createdAt,value
2023-10-10T00:01:05.323Z,18.00
2023-10-10T00:03:33.229Z,18.00
2023-10-10T00:06:00.822Z,18.00
2023-10-10T00:08:41.396Z,17.90
2023-10-10T00:11:15.632Z,17.90
2023-10-10T00:13:44.014Z,17.90
2023-10-10T00:16:12.765Z,17.10
2023-10-10T00:18:44.926Z,17.80
2023-10-10T00:21:18.644Z,17.80
2023-10-10T00:23:48.661Z,17.60
2023-10-10T00:26:16.328Z,17.70
2023-10-10T00:28:46.208Z,17.70
2023-10-10T00:31:19.053Z,17.60
2023-10-10T00:33:47.233Z,17.60
2023-10-10T00:36:16.190Z,17.60
2023-10-10T00:38:43.679Z,17.50
2023-10-10T00:41:12.337Z,17.50
2023-10-10T00:43:39.083Z,17.90
2023-10-10T00:46:09.298Z,17.50
2023-10-10T00:48:39.438Z,17.40
2023-10-10T00:51:12.616Z,17.50
2023-10-10T00:53:46.581Z,17.90
2023-10-10T00:56:15.296Z,17.40
2023-10-10T00:58:43.479Z,17.40
2023-10-10T01:01:11.497Z,17.30
2023-10-10T01:03:43.415Z,17.30
2023-10-10T01:06:26.334Z,17.40
2023-10-10T01:09:05.268Z,17.30
2023-10-10T01:11:32.010Z,17.20
2023-10-10T01:13:58.836Z,17.20
2023-10-10T01:16:26.817Z,17.20
2023-10-10T01:18:58.460Z,17.20
2023-10-10T01:21:31.829Z,17.20
2023-10-10T01:24:07.093Z,17.10
2023-10-10T01:26:38.413Z,18.50
2023-10-10T01:29:19.783Z,17.10
2023-10-10T01:31:47.012Z,17.00
2023-10-10T01:34:16.076Z,17.00
2023-10-10T01:36:42.793Z,17.00
2023-10-10T01:39:21.305Z,17.00
2023-10-10T01:41:49.839Z,16.90
2023-10-10T01:44:19.357Z,16.90
2023-10-10T01:46:46.996Z,16.90
2023-10-10T01:49:32.253Z,16.90
2023-10-10T01:52:02.136Z,16.80
2023-10-10T01:54:42.686Z,16.80
2023-10-10T01:57:17.306Z,16.80
2023-10-10T01:59:45.235Z,16.80
2023-10-10T02:02:16.001Z,16.70
2023-10-10T02:04:45.483Z,16.70
2023-10-10T02:07:18.112Z,16.70
2023-10-10T02:09:45.146Z,16.70
2023-10-10T02:12:17.386Z,16.60
2023-10-10T02:14:44.431Z,16.60
2023-10-10T02:17:28.051Z,16.60
2023-10-10T02:20:15.269Z,16.50
2023-10-10T02:22:54.122Z,16.50
2023-10-10T02:25:36.373Z,16.50
2023-10-10T02:28:11.533Z,16.50
2023-10-10T02:30:38.406Z,16.40
2023-10-10T02:33:25.290Z,16.40
2023-10-10T02:36:00.246Z,16.40
2023-10-10T02:38:33.318Z,16.40
2023-10-10T02:41:26.751Z,16.30
2023-10-10T02:44:04.495Z,16.30
2023-10-10T02:46:40.236Z,16.80
2023-10-10T02:49:15.213Z,16.30
2023-10-10T02:51:44.598Z,16.20
2023-10-10T02:54:42.272Z,16.20
2023-10-10T02:57:27.536Z,16.20
2023-10-10T03:00:22.154Z,16.10
2023-10-10T03:02:54.701Z,16.10
2023-10-10T03:05:39.534Z,16.10
2023-10-10T03:08:27.775Z,16.10
2023-10-10T03:11:01.425Z,16.00
2023-10-10T03:13:32.236Z,16.00
2023-10-10T03:16:13.972Z,16.00
2023-10-10T03:18:54.936Z,15.90
2023-10-10T03:21:44.982Z,15.90
2023-10-10T03:24:16.446Z,15.90
2023-10-10T03:26:43.136Z,15.90
2023-10-10T03:29:21.313Z,15.80
2023-10-10T03:32:10.294Z,16.30
2023-10-10T03:34:46.122Z,15.80
2023-10-10T03:37:33.254Z,15.80
2023-10-10T03:40:19.932Z,15.70
2023-10-10T03:43:05.151Z,15.70
2023-10-10T03:45:50.365Z,15.70
2023-10-10T03:48:35.936Z,15.70
2023-10-10T03:51:21.599Z,15.60
2023-10-10T03:54:07.049Z,15.60
2023-10-10T03:56:52.481Z,15.60
2023-10-10T03:59:38.196Z,15.60
2023-10-10T04:02:23.917Z,15.60
2023-10-10T04:05:24.032Z,15.60
2023-10-10T04:08:12.322Z,15.50
2023-10-10T04:11:05.058Z,15.40
2023-10-10T04:13:50.170Z,15.50
2023-10-10T04:16:35.702Z,15.50
2023-10-10T04:19:21.035Z,15.40
2023-10-10T04:22:06.301Z,15.40
2023-10-10T04:24:51.699Z,15.40
2023-10-10T04:27:36.877Z,15.30
2023-10-10T04:30:22.512Z,15.30
2023-10-10T04:33:07.836Z,15.30
2023-10-10T04:35:53.007Z,15.30
2023-10-10T04:38:38.755Z,15.20
2023-10-10T04:41:23.943Z,15.20
2023-10-10T04:44:09.317Z,15.20
2023-10-10T04:46:54.889Z,15.20
2023-10-10T04:49:40.027Z,15.20
2023-10-10T04:52:39.289Z,15.20
2023-10-10T04:55:25.002Z,15.10
2023-10-10T04:58:10.258Z,15.10
2023-10-10T05:00:55.357Z,15.10
2023-10-10T05:03:40.755Z,15.00
2023-10-10T05:06:26.038Z,15.00
2023-10-10T05:09:11.221Z,15.10
2023-10-10T05:11:56.723Z,15.00
2023-10-10T05:14:41.907Z,14.90
2023-10-10T05:17:27.668Z,14.90
2023-10-10T05:20:13.037Z,14.90
2023-10-10T05:22:58.423Z,14.90
2023-10-10T05:25:25.233Z,14.90
2023-10-10T05:27:59.696Z,14.90
2023-10-10T05:30:40.971Z,14.80
2023-10-10T05:33:08.301Z,14.70
2023-10-10T05:35:40.039Z,14.80
2023-10-10T05:38:10.682Z,14.80
2023-10-10T05:40:39.693Z,14.70
2023-10-10T05:43:17.139Z,14.70
2023-10-10T05:45:45.195Z,14.60
2023-10-10T05:48:13.329Z,14.70
2023-10-10T05:50:42.094Z,14.60
2023-10-10T05:53:09.229Z,14.60
2023-10-10T05:55:39.634Z,14.60
2023-10-10T05:58:06.996Z,14.60
2023-10-10T06:00:42.834Z,14.60
2023-10-10T06:03:10.840Z,14.60
2023-10-10T06:05:45.256Z,14.50
2023-10-10T06:08:12.457Z,14.40
2023-10-10T06:10:39.394Z,14.50
2023-10-10T06:13:07.681Z,14.50
2023-10-10T06:15:36.747Z,14.50
2023-10-10T06:18:14.805Z,14.40
2023-10-10T06:21:06.636Z,14.40
2023-10-10T06:23:35.116Z,16.30
2023-10-10T06:26:02.921Z,14.40
2023-10-10T06:28:36.782Z,14.40
2023-10-10T06:31:04.359Z,14.40
2023-10-10T06:33:31.701Z,14.40
2023-10-10T06:36:24.790Z,14.40
2023-10-10T06:39:01.103Z,14.40
2023-10-10T06:41:29.348Z,14.40
2023-10-10T06:43:58.585Z,14.40
2023-10-10T06:46:25.401Z,14.30
2023-10-10T06:48:52.294Z,14.30
2023-10-10T06:51:23.228Z,14.30
2023-10-10T06:53:50.628Z,14.30
2023-10-10T06:56:18.762Z,14.30
2023-10-10T06:58:45.860Z,14.30
2023-10-10T07:01:13.272Z,14.30
2023-10-10T07:03:48.026Z,16.00
2023-10-10T07:06:15.042Z,14.30
2023-10-10T07:08:42.382Z,14.30
2023-10-10T07:11:12.115Z,14.30
2023-10-10T07:13:45.115Z,14.30
2023-10-10T07:16:11.885Z,14.30
2023-10-10T07:18:43.999Z,14.30
2023-10-10T07:21:31.761Z,14.30
2023-10-10T07:24:06.339Z,14.30
2023-10-10T07:26:42.279Z,14.30
2023-10-10T07:29:29.014Z,14.40
2023-10-10T07:32:06.082Z,14.40
2023-10-10T07:34:36.475Z,14.40
2023-10-10T07:37:09.367Z,14.40
2023-10-10T07:40:03.194Z,14.40
2023-10-10T07:42:31.151Z,14.40
2023-10-10T07:45:14.139Z,14.50
2023-10-10T07:48:00.629Z,14.50
2023-10-10T07:50:29.339Z,14.50
2023-10-10T07:55:23.919Z,14.60
2023-10-10T07:58:07.430Z,14.60
2023-10-10T08:00:37.331Z,14.70
2023-10-10T08:03:05.693Z,14.70
2023-10-10T08:05:33.184Z,14.80
2023-10-10T08:08:06.879Z,14.80
2023-10-10T08:10:40.142Z,15.60
2023-10-10T08:13:13.491Z,14.90
2023-10-10T08:15:51.327Z,14.90
2023-10-10T08:18:37.723Z,15.00
2023-10-10T08:21:09.256Z,15.00
2023-10-10T08:23:37.342Z,15.10
2023-10-10T08:26:04.151Z,15.10
2023-10-10T08:28:30.846Z,15.20
2023-10-10T08:30:59.372Z,15.30
2023-10-10T08:33:33.655Z,15.30
2023-10-10T08:36:00.649Z,15.40
2023-10-10T08:38:27.351Z,15.40
2023-10-10T08:41:02.424Z,15.50
2023-10-10T08:43:32.779Z,15.60
2023-10-10T08:46:04.538Z,15.60
2023-10-10T08:48:35.290Z,15.70
2023-10-10T08:51:05.437Z,15.80
2023-10-10T08:53:36.464Z,15.80
2023-10-10T08:56:04.225Z,15.90
2023-10-10T08:58:34.670Z,16.00
2023-10-10T09:01:01.936Z,16.10
2023-10-10T11:10:07.634Z,19.80
2023-10-10T11:12:38.018Z,21.00
2023-10-10T11:15:09.107Z,20.10
2023-10-10T11:17:40.389Z,20.20
2023-10-10T11:20:27.277Z,20.30
2023-10-10T11:22:56.602Z,20.40
2023-10-10T11:25:28.685Z,20.60
2023-10-10T11:28:04.342Z,20.70
2023-10-10T11:30:34.995Z,20.80
2023-10-10T11:33:17.774Z,20.90
2023-10-10T11:35:49.767Z,21.00
2023-10-10T11:38:18.036Z,21.10
2023-10-10T11:40:53.409Z,21.20
2023-10-10T11:43:23.159Z,21.30
2023-10-10T11:45:53.132Z,21.40
2023-10-10T11:48:20.310Z,21.50
2023-10-10T12:10:23.064Z,22.10
2023-10-10T12:12:53.128Z,22.20
2023-10-10T12:15:23.388Z,22.30
2023-10-10T12:17:54.786Z,22.40
2023-10-10T12:20:23.020Z,22.50
2023-10-10T12:22:49.878Z,22.60
2023-10-10T12:25:16.577Z,22.60
2023-10-10T12:27:47.425Z,22.70
2023-10-10T12:30:19.297Z,22.80
2023-10-10T12:32:50.691Z,22.90
2023-10-10T12:35:18.626Z,22.90
2023-10-10T12:37:45.480Z,23.00
2023-10-10T12:40:12.846Z,23.20
2023-10-10T12:42:40.052Z,23.20
2023-10-10T12:45:07.295Z,23.30
2023-10-10T12:47:34.332Z,23.30
2023-10-10T12:50:05.558Z,23.40
2023-10-10T12:52:36.797Z,23.50
2023-10-10T12:55:10.962Z,23.50
2023-10-10T12:57:38.471Z,23.60
2023-10-10T13:00:24.634Z,23.70
2023-10-10T13:02:54.346Z,23.80
2023-10-10T13:05:28.424Z,23.90
2023-10-10T13:07:56.671Z,23.90
2023-10-10T13:10:28.977Z,24.10
2023-10-10T13:12:55.752Z,24.10
2023-10-10T13:15:47.916Z,24.20
2023-10-10T13:18:25.721Z,24.30
2023-10-10T13:20:52.647Z,24.40
2023-10-10T13:23:20.010Z,24.40
2023-10-10T13:25:50.073Z,24.50
2023-10-10T13:28:22.026Z,24.60
2023-10-10T13:30:49.030Z,24.70
2023-10-10T13:33:16.723Z,24.80
2023-10-10T13:35:46.473Z,24.80
2023-10-10T13:38:13.655Z,24.90
2023-10-10T13:40:45.857Z,25.00
2023-10-10T13:43:18.069Z,25.00
2023-10-10T13:45:52.174Z,25.10
2023-10-10T13:48:25.978Z,25.10
2023-10-10T13:50:52.897Z,25.20
2023-10-10T13:53:21.466Z,25.70
2023-10-10T13:55:48.623Z,25.30
2023-10-10T13:58:17.298Z,25.30
2023-10-10T14:00:57.100Z,25.40
2023-10-10T14:03:30.708Z,25.40
2023-10-10T14:06:11.477Z,25.40
2023-10-10T14:08:38.432Z,25.50
2023-10-10T14:11:05.411Z,25.50
2023-10-10T14:13:33.670Z,25.60
2023-10-10T14:16:02.213Z,25.60
2023-10-10T14:18:31.164Z,25.70
2023-10-10T14:21:02.372Z,25.70
2023-10-10T14:23:31.271Z,25.70
2023-10-10T14:26:06.846Z,25.70
2023-10-10T14:28:35.068Z,25.80
2023-10-10T14:31:01.875Z,25.70
2023-10-10T14:35:55.335Z,25.80
2023-10-10T14:38:22.141Z,25.80
2023-10-10T14:40:48.868Z,25.80
2023-10-10T14:43:15.590Z,25.80
2023-10-10T14:45:45.255Z,25.80
2023-10-10T14:48:16.102Z,25.80
2023-10-10T14:50:44.630Z,25.80
2023-10-10T14:53:11.376Z,25.80
2023-10-10T14:55:45.452Z,25.80
2023-10-10T14:58:14.145Z,25.80
2023-10-10T15:00:46.180Z,25.80
2023-10-10T15:03:20.008Z,25.80
2023-10-10T15:05:48.744Z,25.80
2023-10-10T15:08:16.064Z,25.80
2023-10-10T15:10:42.812Z,25.80
2023-10-10T15:13:10.472Z,25.80
2023-10-10T15:15:37.165Z,25.80
2023-10-10T15:18:04.612Z,25.80
2023-10-10T15:20:31.437Z,25.80
2023-10-10T15:22:58.177Z,25.80
2023-10-10T15:25:24.850Z,25.80
2023-10-10T15:27:54.379Z,25.80
2023-10-10T15:30:21.738Z,25.80
2023-10-10T15:32:49.152Z,25.80
2023-10-10T15:35:18.155Z,25.80
2023-10-10T15:37:45.480Z,25.80
2023-10-10T15:40:22.783Z,25.80
2023-10-10T15:42:51.746Z,25.80
2023-10-10T15:45:21.748Z,25.80
2023-10-10T15:47:54.123Z,25.80
2023-10-10T15:50:22.861Z,25.80
2023-10-10T15:52:50.319Z,25.80
2023-10-10T15:55:24.677Z,25.80
2023-10-10T15:57:54.928Z,25.80
2023-10-10T16:00:34.151Z,25.70
2023-10-10T16:03:08.340Z,25.70
2023-10-10T16:05:46.251Z,25.70
2023-10-10T16:08:13.704Z,25.70
2023-10-10T16:10:42.888Z,25.70
2023-10-10T16:13:10.043Z,25.70
2023-10-10T16:15:37.854Z,25.60
2023-10-10T16:18:05.557Z,25.60
2023-10-10T16:20:37.432Z,25.60
2023-10-10T16:23:08.825Z,25.50
2023-10-10T16:25:37.850Z,25.50
2023-10-10T16:28:07.940Z,25.50
2023-10-10T16:30:40.196Z,25.40
2023-10-10T16:33:09.842Z,25.40
2023-10-10T16:35:39.869Z,25.40
2023-10-10T16:38:06.586Z,25.30
2023-10-10T16:40:33.241Z,25.30
2023-10-10T16:42:59.918Z,25.20
2023-10-10T16:45:33.537Z,25.10
2023-10-10T16:48:02.567Z,25.10
2023-10-10T16:50:29.498Z,25.10
2023-10-10T16:53:09.991Z,25.00
2023-10-10T16:55:37.974Z,25.00
2023-10-10T16:58:04.750Z,24.90
2023-10-10T17:00:31.569Z,24.90
2023-10-10T17:02:58.382Z,24.80
2023-10-10T17:05:25.402Z,24.80
2023-10-10T17:07:52.133Z,24.70
2023-10-10T17:10:18.867Z,24.60
2023-10-10T17:12:45.534Z,24.60
2023-10-10T17:15:19.906Z,24.50
2023-10-10T17:17:47.159Z,24.40
2023-10-10T17:20:17.056Z,24.40
2023-10-10T17:22:49.434Z,24.30
2023-10-10T17:29:04.470Z,24.20
2023-10-10T17:31:31.332Z,24.10
2023-10-10T17:33:58.238Z,24.00
2023-10-10T17:36:28.468Z,23.90
2023-10-10T17:38:55.841Z,23.90
2023-10-10T17:41:22.972Z,23.80
2023-10-10T17:43:53.742Z,23.80
2023-10-10T17:46:26.067Z,23.70
2023-10-10T17:48:55.855Z,23.70
2023-10-10T17:51:25.047Z,23.60
2023-10-10T17:53:55.847Z,23.50
2023-10-10T17:56:24.790Z,23.50
2023-10-10T17:58:52.195Z,23.40
2023-10-10T18:01:22.594Z,23.40
2023-10-10T18:03:57.267Z,23.20
2023-10-10T18:06:25.162Z,23.20
2023-10-10T18:08:53.805Z,23.20
2023-10-10T18:11:20.700Z,23.10
2023-10-10T18:13:50.878Z,23.00
2023-10-10T18:16:22.444Z,23.00
2023-10-10T18:18:52.591Z,22.90
2023-10-10T18:21:22.839Z,22.90
2023-10-10T18:23:49.723Z,22.80
2023-10-10T18:26:18.152Z,22.70
2023-10-10T18:28:44.923Z,22.70
2023-10-10T18:31:14.745Z,22.60
2023-10-10T18:33:42.476Z,22.60
2023-10-10T18:36:11.369Z,22.50
2023-10-10T18:38:38.972Z,22.50
2023-10-10T18:41:05.749Z,22.40
2023-10-10T18:43:32.690Z,22.40
2023-10-10T18:46:01.708Z,22.30
2023-10-10T18:48:29.185Z,22.20
2023-10-10T18:50:56.007Z,22.20
2023-10-10T18:53:26.784Z,22.10
2023-10-10T18:55:56.072Z,22.10
2023-10-10T18:58:27.340Z,22.00
2023-10-10T19:00:56.247Z,22.00
2023-10-10T19:03:23.666Z,21.90
2023-10-10T19:05:55.015Z,21.90
2023-10-10T19:08:23.662Z,21.70
2023-10-10T19:10:53.229Z,21.70
2023-10-10T19:13:19.939Z,21.70
2023-10-10T19:15:49.741Z,21.60
2023-10-10T19:18:20.066Z,21.60
2023-10-10T19:20:49.590Z,21.50
2023-10-10T19:23:16.356Z,21.50
2023-10-10T19:25:49.143Z,21.40
2023-10-10T19:28:18.266Z,21.40
2023-10-10T19:30:45.940Z,21.30
2023-10-10T19:33:15.971Z,21.30
2023-10-10T19:35:46.688Z,21.20
2023-10-10T19:38:13.687Z,21.20
2023-10-10T19:40:44.632Z,21.10
2023-10-10T19:43:14.033Z,21.10
2023-10-10T19:45:41.298Z,21.00
2023-10-10T19:48:08.359Z,21.00
2023-10-10T19:50:45.828Z,20.90
2023-10-10T19:53:13.885Z,20.90
2023-10-10T19:55:42.457Z,20.80
2023-10-10T19:58:10.887Z,20.80
2023-10-10T20:00:43.686Z,20.70
2023-10-10T20:03:13.502Z,20.60
2023-10-10T20:05:41.955Z,20.60
2023-10-10T20:08:16.412Z,20.50
2023-10-10T20:10:50.580Z,20.50
2023-10-10T20:13:18.472Z,20.50
2023-10-10T20:15:45.509Z,20.40
2023-10-10T20:18:12.553Z,20.40
2023-10-10T20:20:41.134Z,20.30
2023-10-10T20:23:08.803Z,20.30
2023-10-10T20:25:40.670Z,20.20
2023-10-10T20:28:08.357Z,20.20
2023-10-10T20:30:37.748Z,20.10
2023-10-10T20:33:06.519Z,20.00
2023-10-10T20:35:33.653Z,20.00
2023-10-10T20:38:06.967Z,19.90
2023-10-10T20:40:36.055Z,19.90
2023-10-10T20:43:05.669Z,19.90
2023-10-10T20:45:36.296Z,19.80
2023-10-10T20:48:09.614Z,19.80
2023-10-10T20:50:41.563Z,19.70
2023-10-10T20:53:08.788Z,19.70
2023-10-10T20:55:35.620Z,19.60
2023-10-10T20:58:02.370Z,19.60
2023-10-10T21:00:32.101Z,19.50
2023-10-10T21:03:02.190Z,19.50
2023-10-10T21:05:29.115Z,19.40
2023-10-10T21:07:56.725Z,19.40
2023-10-10T21:10:24.797Z,19.30
2023-10-10T21:12:51.742Z,19.30
2023-10-10T21:15:21.131Z,19.20
2023-10-10T21:17:51.172Z,19.20
2023-10-10T21:20:26.139Z,19.10
2023-10-10T21:22:54.135Z,19.10
2023-10-10T21:25:21.944Z,19.00
2023-10-10T21:27:58.421Z,19.00
2023-10-10T21:30:28.038Z,18.90
2023-10-10T21:32:58.916Z,18.90
2023-10-10T21:35:31.028Z,18.90
2023-10-10T21:38:03.045Z,18.80
2023-10-10T21:40:32.406Z,18.70
2023-10-10T21:42:59.554Z,18.70
2023-10-10T21:45:26.686Z,18.70
2023-10-10T21:47:58.303Z,18.70
2023-10-10T21:50:25.628Z,18.60
2023-10-10T21:52:52.543Z,18.60
2023-10-10T21:55:21.201Z,18.60
2023-10-10T21:57:58.019Z,18.50
2023-10-10T22:00:45.663Z,18.50
2023-10-10T22:03:14.826Z,18.40
2023-10-10T22:05:43.995Z,18.40
2023-10-10T22:08:11.907Z,18.40
2023-10-10T22:10:42.781Z,18.30
2023-10-10T22:13:12.293Z,18.30
2023-10-10T22:15:39.008Z,18.30
2023-10-10T22:18:06.495Z,18.30
2023-10-10T22:20:36.644Z,18.20
2023-10-10T22:23:05.557Z,18.20
2023-10-10T22:25:34.935Z,18.10
2023-10-10T22:28:02.566Z,18.10
2023-10-10T22:30:33.689Z,18.00
2023-10-10T22:33:00.698Z,18.10
2023-10-10T22:35:28.565Z,18.00
2023-10-10T22:37:57.264Z,18.00
2023-10-10T22:40:26.033Z,18.00
2023-10-10T22:42:53.967Z,17.90
2023-10-10T22:45:20.981Z,17.90
2023-10-10T22:47:49.105Z,17.90
2023-10-10T22:50:20.426Z,17.80
2023-10-10T22:52:53.465Z,17.80
2023-10-10T22:55:28.327Z,17.80
2023-10-10T22:58:02.001Z,17.70
2023-10-10T23:00:37.350Z,17.70
2023-10-10T23:03:06.693Z,17.70
2023-10-10T23:05:36.864Z,17.70
2023-10-10T23:08:03.821Z,17.60
2023-10-10T23:10:35.225Z,17.60
2023-10-10T23:13:05.028Z,17.50
2023-10-10T23:15:31.838Z,17.60
2023-10-10T23:18:00.499Z,17.50
2023-10-10T23:20:28.879Z,17.50
2023-10-10T23:23:00.999Z,17.40
2023-10-10T23:25:27.782Z,17.40
2023-10-10T23:27:57.926Z,17.40
2023-10-10T23:30:29.058Z,17.40
2023-10-10T23:32:57.006Z,17.30
2023-10-10T23:35:25.638Z,17.30
2023-10-10T23:37:54.113Z,17.20
2023-10-10T23:40:39.302Z,17.20
2023-10-10T23:43:07.111Z,17.20
2023-10-10T23:45:42.795Z,17.20
2023-10-10T23:48:16.498Z,17.20
2023-10-10T23:50:44.260Z,17.20
2023-10-10T23:53:13.857Z,17.10
2023-10-10T23:55:40.894Z,17.10
2023-10-10T23:58:10.924Z,17.10
